Time;durP1;ratioP1;P1;durP2;ratioP2;P2;SDS_P1;SDS_P2;PMS_P1;PMS_P2;Temp;Humidity;BMP_temperature;BMP_pressure;BME280_temperature;BME280_humidity;BME280_pressure;Samples;Min_cycle;Max_cycle;Signal;HPM_P1;HPM_P2
2024/01/08 00:23:22;;;;;;;7;3.2;;;;;;;;;;;;;-83
2024/01/08 00:53:25;;;;;;;6.2;3;;;;;;;;;;;;;-83
2024/01/08 01:23:31;;;;;;;5.4;2.8;;;;;;;;;;;;;-83
2024/01/08 01:53:21;;;;;;;8.3;2.9;;;;;;;;;;;;;-82
2024/01/08 02:23:21;;;;;;;8.8;3.6;;;;;;;;;;;;;-83
2024/01/08 02:53:17;;;;;;;9.2;3.8;;;;;;;;;;;;;-83
2024/01/08 03:23:29;;;;;;;7;3.1;;;;;;;;;;;;;-83
2024/01/08 03:53:27;;;;;;;7.8;2.5;;;;;;;;;;;;;-83
2024/01/08 04:23:14;;;;;;;8.1;3.8;;;;;;;;;;;;;-83
2024/01/08 04:53:23;;;;;;;7;3.2;;;;;;;;;;;;;-84
2024/01/08 05:53:11;;;;;;;6.1;3;;;;;;;;;;;;;-83
2024/01/08 06:23:12;;;;;;;6.4;2.8;;;;;;;;;;;;;-83
2024/01/08 06:53:12;;;;;;;9.4;3.9;;;;;;;;;;;;;-83
2024/01/08 07:23:20;;;;;;;7.8;3.6;;;;;;;;;;;;;-83
2024/01/08 07:53:08;;;;;;;7.5;3.7;;;;;;;;;;;;;-82
2024/01/08 08:23:14;;;;;;;6.1;3;;;;;;;;;;;;;-84
2024/01/08 08:53:05;;;;;;;7.1;2.8;;;;;;;;;;;;;-79
2024/01/08 09:23:04;;;;;;;5.7;2.4;;;;;;;;;;;;;-85
2024/01/08 09:53:11;;;;;;;4.3;1.9;;;;;;;;;;;;;-83
2024/01/08 10:23:24;;;;;;;4.9;1.8;;;;;;;;;;;;;-84
2024/01/08 10:53:07;;;;;;;4.1;2.2;;;;;;;;;;;;;-83
2024/01/08 11:23:05;;;;;;;6.2;2.3;;;;;;;;;;;;;-83
2024/01/08 11:53:08;;;;;;;4.2;2.2;;;;;;;;;;;;;-83
2024/01/08 12:23:02;;;;;;;5.4;2.6;;;;;;;;;;;;;-83
2024/01/08 12:53:00;;;;;;;7.5;3;;;;;;;;;;;;;-82
2024/01/08 13:53:05;;;;;;;7.1;3;;;;;;;;;;;;;-84
2024/01/08 14:22:59;;;;;;;6.1;3.1;;;;;;;;;;;;;-83
2024/01/08 14:53:07;;;;;;;7;3.1;;;;;;;;;;;;;-79
2024/01/08 15:22:59;;;;;;;7.3;3.1;;;;;;;;;;;;;-80
2024/01/08 15:52:55;;;;;;;7.3;3.1;;;;;;;;;;;;;-79
2024/01/08 16:23:04;;;;;;;7.2;3;;;;;;;;;;;;;-80
2024/01/08 17:22:54;;;;;;;5.6;3.1;;;;;;;;;;;;;-79
2024/01/08 17:52:52;;;;;;;6.3;2.9;;;;;;;;;;;;;-80
2024/01/08 18:23:05;;;;;;;9.1;3.2;;;;;;;;;;;;;-80
2024/01/08 18:52:52;;;;;;;6.9;3.2;;;;;;;;;;;;;-80
2024/01/08 19:22:59;;;;;;;;;;;;;;;;;;;;;
2024/01/08 20:22:46;;;;;;;9.8;3.4;;;;;;;;;;;;;-80
2024/01/08 20:52:46;;;;;;;7.1;3;;;;;;;;;;;;;-80
2024/01/08 21:22:47;;;;;;;6.5;3.3;;;;;;;;;;;;;-79
2024/01/08 21:52:46;;;;;;;7.5;3.4;;;;;;;;;;;;;-80
2024/01/08 22:22:43;;;;;;;8;3.8;;;;;;;;;;;;;-80
2024/01/08 22:52:42;;;;;;;9.9;4.6;;;;;;;;;;;;;-79
2024/01/08 23:22:54;;;;;;;8.6;4.1;;;;;;;;;;;;;-80
2024/01/08 23:52:45;;;;;;;11;4.2;;;;;;;;;;;;;-80
